createdAt,value
2017-06-29T00:01:05.068Z,98455.66
2017-06-29T00:03:34.191Z,98445.09
2017-06-29T00:06:03.360Z,98437.44
2017-06-29T00:08:32.427Z,98440.20
2017-06-29T00:11:02.334Z,98435.69
2017-06-29T00:13:31.415Z,98435.69
2017-06-29T00:16:01.176Z,98431.56
2017-06-29T00:18:30.232Z,98424.72
2017-06-29T00:21:00.057Z,98430.22
2017-06-29T00:23:29.108Z,98429.62
2017-06-29T00:25:58.197Z,98424.19
2017-06-29T00:28:27.236Z,98416.93
2017-06-29T00:30:57.080Z,98418.31
2017-06-29T00:33:26.143Z,98425.39
2017-06-29T00:35:55.961Z,98428.14
2017-06-29T00:38:25.815Z,98431.66
2017-06-29T00:40:54.862Z,98430.08
2017-06-29T00:43:23.881Z,98422.43
2017-06-29T00:45:52.957Z,98424.22
2017-06-29T00:48:22.760Z,98421.52
2017-06-29T00:50:52.991Z,98424.30
2017-06-29T00:53:22.005Z,98422.37
2017-06-29T00:55:51.056Z,98418.80
2017-06-29T00:58:20.108Z,98416.48
2017-06-29T01:00:49.159Z,98414.22
2017-06-29T01:03:18.235Z,98420.46
2017-06-29T01:05:47.267Z,98422.26
2017-06-29T01:08:16.433Z,98424.23
2017-06-29T01:10:45.471Z,98424.66
2017-06-29T01:13:14.556Z,98426.23
2017-06-29T01:15:43.614Z,98428.00
2017-06-29T01:18:12.663Z,98418.59
2017-06-29T01:20:41.702Z,98423.73
2017-06-29T01:23:11.029Z,98425.50
2017-06-29T01:25:40.072Z,98424.72
2017-06-29T01:28:09.162Z,98423.91
2017-06-29T01:30:38.229Z,98424.33
2017-06-29T01:33:07.319Z,98429.83
2017-06-29T01:35:36.404Z,98432.58
2017-06-29T01:38:05.507Z,98428.10
2017-06-29T01:40:34.541Z,98423.20
2017-06-29T01:43:03.616Z,98420.48
2017-06-29T01:45:32.655Z,98412.18
2017-06-29T01:48:01.724Z,98416.09
2017-06-29T01:50:30.823Z,98409.64
2017-06-29T01:53:00.815Z,98401.19
2017-06-29T01:55:29.874Z,98407.34
2017-06-29T01:57:58.939Z,98407.56
2017-06-29T02:00:28.012Z,98408.20
2017-06-29T02:02:57.143Z,98404.50
2017-06-29T02:05:26.205Z,98405.52
2017-06-29T02:07:55.288Z,98408.69
2017-06-29T02:10:24.369Z,98416.33
2017-06-29T02:12:53.412Z,98413.78
2017-06-29T02:15:22.535Z,98417.73
2017-06-29T02:17:51.592Z,98417.31
2017-06-29T02:20:20.642Z,98419.07
2017-06-29T02:22:49.717Z,98421.02
2017-06-29T02:25:18.755Z,98414.39
2017-06-29T02:27:48.011Z,98411.08
2017-06-29T02:30:17.101Z,98417.94
2017-06-29T02:32:46.164Z,98416.60
2017-06-29T02:35:15.274Z,98420.40
2017-06-29T02:37:44.315Z,98423.53
2017-06-29T02:40:13.407Z,98418.67
2017-06-29T02:42:42.420Z,98418.70
2017-06-29T02:45:11.515Z,98416.55
2017-06-29T02:47:40.572Z,98418.13
2017-06-29T02:50:09.947Z,98416.94
2017-06-29T02:52:38.961Z,98422.37
2017-06-29T02:55:08.036Z,98412.58
2017-06-29T02:57:37.126Z,98415.50
2017-06-29T03:00:06.193Z,98414.16
2017-06-29T03:02:35.242Z,98415.89
2017-06-29T03:05:04.604Z,98419.20
2017-06-29T03:07:33.673Z,98417.83
2017-06-29T03:10:02.734Z,98421.56
2017-06-29T03:12:31.952Z,98430.02
2017-06-29T03:15:01.001Z,98433.50
2017-06-29T03:17:30.053Z,98428.33
2017-06-29T03:19:59.129Z,98433.38
2017-06-29T03:22:28.231Z,98436.86
2017-06-29T03:24:57.308Z,98436.86
2017-06-29T03:27:26.392Z,98434.44
2017-06-29T03:29:55.469Z,98439.13
2017-06-29T03:32:24.542Z,98436.73
2017-06-29T03:34:53.595Z,98441.21
2017-06-29T03:37:22.651Z,98436.84
2017-06-29T03:39:51.736Z,98434.59
2017-06-29T03:42:20.807Z,98434.12
2017-06-29T03:44:49.853Z,98435.44
2017-06-29T03:47:19.280Z,98430.89
2017-06-29T03:49:48.331Z,98425.32
2017-06-29T03:52:17.412Z,98429.44
2017-06-29T03:54:46.497Z,98424.76
2017-06-29T03:57:15.557Z,98419.95
2017-06-29T03:59:44.645Z,98421.08
2017-06-29T04:02:13.793Z,98424.00
2017-06-29T04:04:42.862Z,98422.20
2017-06-29T04:07:11.953Z,98425.70
2017-06-29T04:09:40.981Z,98421.53
2017-06-29T04:12:10.073Z,98420.89
2017-06-29T04:14:39.125Z,98424.17
2017-06-29T04:17:08.167Z,98427.91
2017-06-29T04:19:37.239Z,98430.35
2017-06-29T04:22:06.306Z,98431.44
2017-06-29T04:24:35.397Z,98430.37
2017-06-29T04:27:04.432Z,98435.44
2017-06-29T04:29:33.479Z,98437.73
2017-06-29T04:32:02.576Z,98435.36
2017-06-29T04:34:31.611Z,98437.47
2017-06-29T04:37:00.670Z,98438.72
2017-06-29T04:39:29.753Z,98442.30
2017-06-29T04:41:58.841Z,98446.98
2017-06-29T04:44:28.072Z,98440.83
2017-06-29T04:46:57.136Z,98450.98
2017-06-29T04:49:26.380Z,98456.05
2017-06-29T04:51:55.407Z,98455.37
2017-06-29T04:54:24.473Z,98461.73
2017-06-29T04:56:53.539Z,98459.92
2017-06-29T04:59:22.733Z,98457.94
2017-06-29T05:01:51.781Z,98457.00
2017-06-29T05:04:20.841Z,98465.42
2017-06-29T05:06:49.944Z,98461.05
2017-06-29T05:09:19.204Z,98463.31
2017-06-29T05:11:48.480Z,98462.02
2017-06-29T05:14:17.568Z,98462.25
2017-06-29T05:16:46.637Z,98467.13
2017-06-29T05:19:15.709Z,98468.04
2017-06-29T05:21:44.773Z,98468.76
2017-06-29T05:24:13.819Z,98459.80
2017-06-29T05:26:42.863Z,98458.58
2017-06-29T05:29:11.933Z,98463.23
2017-06-29T05:31:40.980Z,98463.51
2017-06-29T05:34:10.049Z,98467.11
2017-06-29T05:36:39.115Z,98462.09
2017-06-29T05:39:08.178Z,98458.86
2017-06-29T05:41:37.247Z,98462.66
2017-06-29T05:44:06.339Z,98459.63
2017-06-29T05:46:35.417Z,98459.36
2017-06-29T05:49:04.534Z,98461.67
2017-06-29T05:51:33.839Z,98466.05
2017-06-29T05:54:02.995Z,98464.28
2017-06-29T05:56:32.053Z,98463.78
2017-06-29T05:59:01.145Z,98464.83
2017-06-29T06:01:30.224Z,98470.08
2017-06-29T06:03:59.299Z,98466.38
2017-06-29T06:06:29.247Z,98466.47
2017-06-29T06:08:58.541Z,98471.09
2017-06-29T06:11:27.593Z,98474.35
2017-06-29T06:13:56.639Z,98475.66
2017-06-29T06:16:25.698Z,98474.30
2017-06-29T06:18:54.803Z,98481.03
2017-06-29T06:21:24.093Z,98473.70
2017-06-29T06:23:53.148Z,98479.23
2017-06-29T06:26:22.201Z,98483.95
2017-06-29T06:28:51.327Z,98478.98
2017-06-29T06:31:20.383Z,98477.11
2017-06-29T06:33:49.485Z,98485.22
2017-06-29T06:36:18.504Z,98495.69
2017-06-29T06:38:47.599Z,98492.28
2017-06-29T06:41:16.659Z,98492.61
2017-06-29T06:43:45.733Z,98493.28
2017-06-29T06:46:15.118Z,98497.09
2017-06-29T06:48:44.188Z,98488.09
2017-06-29T06:51:13.283Z,98494.51
2017-06-29T06:53:42.345Z,98490.81
2017-06-29T06:56:11.695Z,98493.34
2017-06-29T06:58:40.757Z,98495.92
2017-06-29T07:01:09.889Z,98496.03
2017-06-29T07:03:38.942Z,98505.43
2017-06-29T07:06:08.072Z,98510.45
2017-06-29T07:08:37.116Z,98511.92
2017-06-29T07:11:06.511Z,98510.70
2017-06-29T07:13:35.544Z,98518.64
2017-06-29T07:16:04.874Z,98525.09
2017-06-29T07:18:33.924Z,98516.73
2017-06-29T07:21:03.016Z,98524.17
2017-06-29T07:23:32.318Z,98514.51
2017-06-29T07:26:01.383Z,98516.66
2017-06-29T07:28:30.649Z,98520.95
2017-06-29T07:30:59.699Z,98516.00
2017-06-29T07:33:28.757Z,98515.44
2017-06-29T07:35:57.920Z,98521.02
2017-06-29T07:38:27.204Z,98523.63
2017-06-29T07:40:56.276Z,98527.32
2017-06-29T07:43:25.583Z,98527.16
2017-06-29T07:45:54.627Z,98527.71
2017-06-29T07:48:23.700Z,98532.76
2017-06-29T07:50:52.759Z,98532.64
2017-06-29T07:53:21.831Z,98532.13
2017-06-29T07:55:50.901Z,98539.17
2017-06-29T07:58:19.964Z,98548.22
2017-06-29T08:00:49.060Z,98549.05
2017-06-29T08:03:18.119Z,98554.09
2017-06-29T08:05:47.397Z,98558.32
2017-06-29T08:08:16.493Z,98562.41
2017-06-29T08:10:45.540Z,98554.86
2017-06-29T08:13:14.603Z,98557.42
2017-06-29T08:15:43.672Z,98559.40
2017-06-29T08:18:12.751Z,98560.98
2017-06-29T08:20:41.833Z,98565.38
2017-06-29T08:23:10.907Z,98563.05
2017-06-29T08:25:39.979Z,98557.17
2017-06-29T08:28:09.125Z,98555.44
2017-06-29T08:30:38.188Z,98560.73
2017-06-29T08:33:07.820Z,98560.02
2017-06-29T08:35:36.914Z,98564.88
2017-06-29T08:38:05.972Z,98571.52
2017-06-29T08:40:35.304Z,98567.68
2017-06-29T08:43:04.339Z,98564.47
2017-06-29T08:45:33.431Z,98570.69
2017-06-29T08:48:02.472Z,98571.25
2017-06-29T08:50:31.507Z,98573.83
2017-06-29T08:53:00.581Z,98572.19
2017-06-29T08:55:29.641Z,98567.56
2017-06-29T08:57:58.684Z,98576.41
2017-06-29T09:00:27.970Z,98576.03
2017-06-29T09:02:57.024Z,98579.77
2017-06-29T09:05:26.096Z,98574.94
2017-06-29T09:07:55.178Z,98586.84
2017-06-29T09:10:24.302Z,98586.29
2017-06-29T09:12:53.576Z,98593.06
2017-06-29T09:15:24.094Z,98587.66
2017-06-29T09:17:53.117Z,98588.66
2017-06-29T09:20:22.235Z,98590.08
2017-06-29T09:22:51.491Z,98588.84
2017-06-29T09:25:20.800Z,98587.23
2017-06-29T09:27:49.865Z,98595.72
2017-06-29T09:30:19.012Z,98592.95
2017-06-29T09:32:48.075Z,98591.48
2017-06-29T09:35:17.149Z,98593.14
2017-06-29T09:37:46.232Z,98597.30
2017-06-29T09:40:15.535Z,98597.84
2017-06-29T09:42:44.616Z,98590.24
2017-06-29T09:45:13.679Z,98594.88
2017-06-29T09:47:42.816Z,98591.36
2017-06-29T09:50:11.922Z,98593.01
2017-06-29T09:52:40.953Z,98592.67
2017-06-29T09:55:10.057Z,98589.69
2017-06-29T09:57:39.148Z,98587.84
2017-06-29T10:00:08.211Z,98593.52
2017-06-29T10:02:37.279Z,98588.09
2017-06-29T10:05:06.369Z,98590.43
2017-06-29T10:07:35.667Z,98592.23
2017-06-29T10:10:04.786Z,98600.75
2017-06-29T10:12:33.794Z,98595.72
2017-06-29T10:15:02.860Z,98599.47
2017-06-29T10:17:31.967Z,98602.57
2017-06-29T10:20:01.032Z,98608.08
2017-06-29T10:22:30.129Z,98607.75
2017-06-29T10:24:59.190Z,98612.79
2017-06-29T10:27:28.272Z,98614.87
2017-06-29T10:29:57.339Z,98610.06
2017-06-29T10:32:26.413Z,98612.28
2017-06-29T10:34:55.452Z,98616.44
2017-06-29T10:37:24.493Z,98620.06
2017-06-29T10:39:53.593Z,98618.95
2017-06-29T10:42:22.646Z,98620.80
2017-06-29T10:44:51.710Z,98622.17
2017-06-29T10:47:20.758Z,98619.14
2017-06-29T10:49:49.830Z,98618.31
2017-06-29T10:52:18.932Z,98625.72
2017-06-29T10:54:47.978Z,98623.98
2017-06-29T10:57:17.201Z,98623.38
2017-06-29T10:59:46.262Z,98625.62
2017-06-29T11:02:15.309Z,98628.36
2017-06-29T11:04:44.406Z,98628.78
2017-06-29T11:07:13.471Z,98622.78
2017-06-29T11:09:42.522Z,98623.03
2017-06-29T11:12:11.609Z,98631.60
2017-06-29T11:14:40.674Z,98628.37
2017-06-29T11:17:09.724Z,98634.62
2017-06-29T11:19:38.845Z,98636.69
2017-06-29T11:22:07.971Z,98640.87
2017-06-29T11:24:37.021Z,98638.41
2017-06-29T11:27:06.104Z,98647.16
2017-06-29T11:29:35.159Z,98647.14
2017-06-29T11:32:04.238Z,98649.39
2017-06-29T11:34:33.314Z,98643.56
2017-06-29T11:37:02.389Z,98647.11
2017-06-29T11:39:31.459Z,98655.91
2017-06-29T11:42:00.515Z,98655.58
2017-06-29T11:44:29.584Z,98661.39
2017-06-29T11:46:58.841Z,98665.56
2017-06-29T11:49:27.973Z,98663.03
2017-06-29T11:51:56.999Z,98663.34
2017-06-29T11:54:26.353Z,98663.98
2017-06-29T11:56:55.430Z,98657.00
2017-06-29T11:59:24.448Z,98663.45
2017-06-29T12:01:53.528Z,98661.36
2017-06-29T12:04:22.581Z,98665.81
2017-06-29T12:06:51.628Z,98667.14
2017-06-29T12:09:21.567Z,98674.01
2017-06-29T12:11:50.629Z,98671.02
2017-06-29T12:14:19.721Z,98672.30
2017-06-29T12:16:48.754Z,98666.39
2017-06-29T12:19:17.840Z,98678.34
2017-06-29T12:21:46.904Z,98669.69
2017-06-29T12:24:15.973Z,98679.48
2017-06-29T12:26:45.028Z,98670.30
2017-06-29T12:29:14.097Z,98673.03
2017-06-29T12:31:43.303Z,98667.33
2017-06-29T12:34:12.379Z,98676.59
2017-06-29T12:36:41.446Z,98673.66
2017-06-29T12:39:10.506Z,98673.84
2017-06-29T12:41:39.538Z,98687.86
2017-06-29T12:44:08.845Z,98685.31
2017-06-29T12:46:38.138Z,98693.81
2017-06-29T12:49:07.244Z,98684.52
2017-06-29T12:51:36.283Z,98678.94
2017-06-29T12:54:05.334Z,98680.69
2017-06-29T12:56:34.381Z,98681.91
2017-06-29T12:59:03.473Z,98677.16
2017-06-29T13:01:32.540Z,98688.78
2017-06-29T13:04:02.575Z,98681.63
2017-06-29T13:06:31.633Z,98684.78
2017-06-29T13:09:00.704Z,98683.38
2017-06-29T13:11:29.764Z,98689.23
2017-06-29T13:13:58.844Z,98687.72
2017-06-29T13:16:27.921Z,98691.88
2017-06-29T13:18:56.971Z,98695.30
2017-06-29T13:21:26.059Z,98699.31
2017-06-29T13:23:55.082Z,98705.33
2017-06-29T13:26:24.148Z,98700.25
2017-06-29T13:28:53.198Z,98703.47
2017-06-29T13:31:22.285Z,98714.02
2017-06-29T13:33:51.402Z,98719.55
2017-06-29T13:36:20.462Z,98719.77
2017-06-29T13:38:49.492Z,98719.66
2017-06-29T13:41:18.593Z,98725.61
2017-06-29T13:43:47.636Z,98722.05
2017-06-29T13:46:16.690Z,98727.36
2017-06-29T13:48:45.754Z,98730.75
2017-06-29T13:51:14.795Z,98727.38
2017-06-29T13:53:43.866Z,98732.91
2017-06-29T13:56:12.945Z,98734.45
2017-06-29T13:58:42.013Z,98731.11
2017-06-29T14:01:11.141Z,98733.47
2017-06-29T14:03:40.272Z,98732.45
2017-06-29T14:06:09.374Z,98725.77
2017-06-29T14:08:38.416Z,98730.71
2017-06-29T14:11:07.507Z,98731.59
2017-06-29T14:13:36.561Z,98731.20
2017-06-29T14:16:05.677Z,98739.06
2017-06-29T14:18:34.727Z,98731.92
2017-06-29T14:21:03.795Z,98731.97
2017-06-29T14:23:32.906Z,98742.93
2017-06-29T14:26:01.954Z,98741.20
2017-06-29T14:28:31.071Z,98739.13
2017-06-29T14:31:00.135Z,98740.00
2017-06-29T14:33:29.207Z,98734.93
2017-06-29T14:35:58.295Z,98742.84
2017-06-29T14:38:27.648Z,98737.92
2017-06-29T14:40:56.727Z,98742.98
2017-06-29T14:43:26.016Z,98738.00
2017-06-29T14:45:55.089Z,98737.04
2017-06-29T14:48:24.345Z,98740.50
2017-06-29T14:50:53.456Z,98735.58
2017-06-29T14:53:22.540Z,98740.48
2017-06-29T14:55:51.645Z,98733.83
2017-06-29T14:58:20.740Z,98736.09
2017-06-29T15:00:49.844Z,98735.48
2017-06-29T15:03:18.872Z,98734.27
2017-06-29T15:05:47.957Z,98732.74
2017-06-29T15:08:17.058Z,98732.62
2017-06-29T15:10:46.124Z,98733.79
2017-06-29T15:13:15.169Z,98732.47
2017-06-29T15:15:44.289Z,98733.13
2017-06-29T15:18:13.356Z,98735.17
2017-06-29T15:20:42.421Z,98732.86
2017-06-29T15:23:11.518Z,98726.04
2017-06-29T15:25:40.615Z,98727.81
2017-06-29T15:28:09.764Z,98727.27
2017-06-29T15:30:38.840Z,98730.37
2017-06-29T15:33:07.893Z,98726.50
2017-06-29T15:35:36.949Z,98729.61
2017-06-29T15:38:06.003Z,98723.77
2017-06-29T15:40:35.113Z,98726.09
2017-06-29T15:43:04.200Z,98729.13
2017-06-29T15:45:33.304Z,98724.28
2017-06-29T15:48:02.455Z,98728.09
2017-06-29T15:50:31.532Z,98728.48
2017-06-29T15:53:00.591Z,98723.92
2017-06-29T15:55:29.691Z,98726.04
2017-06-29T15:57:58.767Z,98729.25
2017-06-29T16:00:27.823Z,98731.53
2017-06-29T16:02:56.972Z,98730.74
2017-06-29T16:05:26.915Z,98726.75
2017-06-29T16:07:55.976Z,98723.53
2017-06-29T16:10:25.085Z,98727.82
2017-06-29T16:12:54.163Z,98731.14
2017-06-29T16:15:23.249Z,98727.61
2017-06-29T16:17:52.427Z,98730.98
2017-06-29T16:20:21.503Z,98731.05
2017-06-29T16:22:50.585Z,98722.06
2017-06-29T16:25:19.624Z,98716.30
2017-06-29T16:27:48.942Z,98729.00
2017-06-29T16:30:18.041Z,98728.00
2017-06-29T16:32:47.174Z,98727.92
2017-06-29T16:35:16.241Z,98727.06
2017-06-29T16:37:45.320Z,98733.08
2017-06-29T16:40:14.403Z,98725.25
2017-06-29T16:42:43.500Z,98733.97
2017-06-29T16:45:12.542Z,98733.53
2017-06-29T16:47:41.614Z,98731.87
2017-06-29T16:50:11.449Z,98733.89
2017-06-29T16:52:40.510Z,98732.64
2017-06-29T16:55:09.571Z,98735.52
2017-06-29T16:57:38.704Z,98741.97
2017-06-29T17:00:07.783Z,98748.33
2017-06-29T17:02:36.823Z,98747.64
2017-06-29T17:05:05.905Z,98748.23
2017-06-29T17:07:34.982Z,98749.95
2017-06-29T17:10:04.405Z,98758.70
2017-06-29T17:12:33.677Z,98766.13
2017-06-29T17:15:02.733Z,98769.38
2017-06-29T17:17:31.811Z,98771.12
2017-06-29T17:20:00.872Z,98769.81
2017-06-29T17:22:29.913Z,98762.73
2017-06-29T17:24:59.014Z,98772.59
2017-06-29T17:27:28.861Z,98775.75
2017-06-29T17:29:57.898Z,98775.08
2017-06-29T17:32:27.167Z,98770.53
2017-06-29T17:34:56.214Z,98775.72
2017-06-29T17:37:26.039Z,98777.99
2017-06-29T17:39:55.120Z,98775.97
2017-06-29T17:42:24.164Z,98776.95
2017-06-29T17:44:53.289Z,98779.44
2017-06-29T17:47:22.331Z,98777.45
2017-06-29T17:49:51.448Z,98778.11
2017-06-29T17:52:20.505Z,98773.80
2017-06-29T17:54:49.558Z,98773.80
2017-06-29T17:57:18.632Z,98783.91
2017-06-29T17:59:47.688Z,98785.67
2017-06-29T18:02:17.542Z,98786.81
2017-06-29T18:04:46.589Z,98791.36
2017-06-29T18:07:16.734Z,98789.59
2017-06-29T18:09:45.776Z,98794.63
2017-06-29T18:12:14.989Z,98787.28
2017-06-29T18:14:44.197Z,98794.70
2017-06-29T18:17:13.271Z,98792.00
2017-06-29T18:19:42.675Z,98792.11
2017-06-29T18:22:12.126Z,98786.43
2017-06-29T18:24:41.997Z,98788.11
2017-06-29T18:27:11.293Z,98794.53
2017-06-29T18:29:40.390Z,98795.14
2017-06-29T18:32:09.718Z,98798.36
2017-06-29T18:34:38.853Z,98805.59
2017-06-29T18:37:07.981Z,98802.89
2017-06-29T18:39:37.061Z,98809.09
2017-06-29T18:42:06.144Z,98811.30
2017-06-29T18:44:35.686Z,98815.98
2017-06-29T18:47:04.739Z,98818.41
2017-06-29T18:49:33.814Z,98814.16
2017-06-29T18:52:02.921Z,98816.91
2017-06-29T18:54:31.983Z,98819.19
2017-06-29T18:57:01.039Z,98819.84
2017-06-29T18:59:30.116Z,98820.52
2017-06-29T19:01:59.177Z,98828.63
2017-06-29T19:04:28.272Z,98829.36
2017-06-29T19:06:57.341Z,98839.85
2017-06-29T19:09:27.179Z,98839.34
2017-06-29T19:11:56.306Z,98837.63
2017-06-29T19:14:25.863Z,98845.48
2017-06-29T19:16:55.711Z,98848.62
2017-06-29T19:19:24.811Z,98850.22
2017-06-29T19:21:53.854Z,98855.31
2017-06-29T19:24:22.940Z,98855.14
2017-06-29T19:26:51.985Z,98865.21
2017-06-29T19:29:21.052Z,98864.27
2017-06-29T19:31:50.134Z,98871.82
2017-06-29T19:34:19.229Z,98869.55
2017-06-29T19:36:48.324Z,98875.25
2017-06-29T19:39:17.397Z,98882.97
2017-06-29T19:41:46.459Z,98882.23
2017-06-29T19:44:15.585Z,98878.33
2017-06-29T19:46:44.706Z,98877.10
2017-06-29T19:49:13.775Z,98879.48
2017-06-29T19:51:42.816Z,98880.91
2017-06-29T19:54:12.678Z,98878.22
2017-06-29T19:56:41.745Z,98883.53
2017-06-29T19:59:10.911Z,98885.08
2017-06-29T20:01:39.944Z,98882.09
2017-06-29T20:04:09.069Z,98892.00
2017-06-29T20:06:38.126Z,98892.64
2017-06-29T20:09:08.500Z,98896.06
2017-06-29T20:11:37.583Z,98898.73
2017-06-29T20:14:06.915Z,98907.73
2017-06-29T20:16:35.984Z,98913.39
2017-06-29T20:19:05.092Z,98915.13
2017-06-29T20:21:34.158Z,98923.55
2017-06-29T20:24:03.215Z,98920.30
2017-06-29T20:26:32.324Z,98925.69
2017-06-29T20:29:01.377Z,98924.14
2017-06-29T20:31:30.419Z,98918.66
2017-06-29T20:33:59.731Z,98921.20
2017-06-29T20:36:28.783Z,98924.58
2017-06-29T20:38:58.604Z,98928.97
2017-06-29T20:41:29.420Z,98927.45
2017-06-29T20:43:58.440Z,98920.98
2017-06-29T20:46:27.534Z,98922.83
2017-06-29T20:48:56.676Z,98924.46
2017-06-29T20:51:25.722Z,98923.98
2017-06-29T20:53:54.824Z,98924.37
2017-06-29T20:56:23.905Z,98930.81
2017-06-29T20:58:53.740Z,98934.04
2017-06-29T21:01:22.803Z,98935.64
2017-06-29T21:03:51.897Z,98934.33
2017-06-29T21:06:20.956Z,98936.95
2017-06-29T21:08:50.045Z,98942.36
2017-06-29T21:11:19.085Z,98937.88
2017-06-29T21:13:49.292Z,98944.41
2017-06-29T21:16:18.339Z,98937.16
2017-06-29T21:18:47.436Z,98941.37
2017-06-29T21:21:16.531Z,98951.33
2017-06-29T21:23:45.576Z,98947.86
2017-06-29T21:26:14.700Z,98953.61
2017-06-29T21:28:43.750Z,98954.70
2017-06-29T21:31:12.829Z,98959.07
2017-06-29T21:33:41.874Z,98960.72
2017-06-29T21:36:10.996Z,98965.66
2017-06-29T21:38:40.036Z,98961.16
2017-06-29T21:41:09.118Z,98971.67
2017-06-29T21:43:38.198Z,98970.56
2017-06-29T21:46:07.324Z,98972.41
2017-06-29T21:48:36.413Z,98967.11
2017-06-29T21:51:05.839Z,98966.00
2017-06-29T21:53:34.887Z,98967.21
2017-06-29T21:56:03.992Z,98967.47
2017-06-29T21:58:33.074Z,98970.64
2017-06-29T22:01:02.145Z,98977.58
2017-06-29T22:03:31.491Z,98970.53
2017-06-29T22:06:00.528Z,98979.05
2017-06-29T22:08:29.602Z,98980.63
2017-06-29T22:10:58.656Z,98983.42
2017-06-29T22:13:27.739Z,98973.82
2017-06-29T22:15:56.815Z,98973.41
2017-06-29T22:18:25.885Z,98977.73
2017-06-29T22:20:54.979Z,98973.43
2017-06-29T22:23:24.034Z,98981.69
2017-06-29T22:25:53.115Z,98974.00
2017-06-29T22:28:22.155Z,98970.83
2017-06-29T22:30:51.284Z,98976.57
2017-06-29T22:33:20.360Z,98977.19
2017-06-29T22:35:49.407Z,98972.67
2017-06-29T22:38:18.471Z,98977.58
2017-06-29T22:40:48.302Z,98968.80
2017-06-29T22:43:17.328Z,98970.74
2017-06-29T22:45:46.419Z,98975.65
2017-06-29T22:48:15.506Z,98975.45
2017-06-29T22:50:44.708Z,98968.41
2017-06-29T22:53:13.771Z,98974.33
2017-06-29T22:55:42.903Z,98971.36
2017-06-29T22:58:12.017Z,98983.15
2017-06-29T23:00:43.884Z,98973.17
2017-06-29T23:03:12.983Z,98984.20
2017-06-29T23:05:42.033Z,98975.41
2017-06-29T23:08:11.107Z,98974.86
2017-06-29T23:10:40.547Z,98973.50
2017-06-29T23:13:09.649Z,98969.40
2017-06-29T23:15:38.700Z,98971.16
2017-06-29T23:18:07.803Z,98964.66
2017-06-29T23:20:36.832Z,98967.81
2017-06-29T23:23:05.894Z,98968.98
2017-06-29T23:25:34.971Z,98969.97
2017-06-29T23:28:04.084Z,98976.66
2017-06-29T23:30:33.177Z,98980.21
2017-06-29T23:33:02.291Z,98985.34
2017-06-29T23:35:31.363Z,98984.38
2017-06-29T23:38:00.448Z,98992.05
2017-06-29T23:40:29.543Z,98995.44
2017-06-29T23:42:59.377Z,99003.30
2017-06-29T23:45:28.453Z,99003.31
2017-06-29T23:47:57.499Z,99008.80
2017-06-29T23:50:26.915Z,99005.27
2017-06-29T23:52:55.988Z,99008.45
2017-06-29T23:55:25.060Z,99006.12
2017-06-29T23:57:54.153Z,99012.45
